createdAt,value
2023-04-09T00:02:43.643Z,68.33
2023-04-09T00:05:45.094Z,69.57
2023-04-09T00:08:46.525Z,69.02
2023-04-09T00:11:48.345Z,69.02
2023-04-09T00:14:50.330Z,69.00
2023-04-09T00:17:52.275Z,68.64
2023-04-09T00:20:54.092Z,69.13
2023-04-09T00:23:56.532Z,69.38
2023-04-09T00:26:58.345Z,68.98
2023-04-09T00:30:00.143Z,69.08
2023-04-09T00:33:02.221Z,69.61
2023-04-09T00:36:04.299Z,69.53
2023-04-09T00:39:06.208Z,69.43
2023-04-09T00:42:08.233Z,69.27
2023-04-09T00:45:10.325Z,69.48
2023-04-09T00:48:13.900Z,69.93
2023-04-09T00:51:16.342Z,69.89
2023-04-09T00:54:18.997Z,69.79
2023-04-09T00:57:20.777Z,70.46
2023-04-09T01:00:22.774Z,70.75
2023-04-09T01:03:24.704Z,70.19
2023-04-09T01:06:48.592Z,70.56
2023-04-09T01:10:17.244Z,71.10
2023-04-09T01:13:42.888Z,71.19
2023-04-09T01:16:50.835Z,70.73
2023-04-09T01:20:06.594Z,71.16
2023-04-09T01:23:46.721Z,71.97
2023-04-09T01:26:58.392Z,72.21
2023-04-09T01:30:06.473Z,72.13
2023-04-09T01:33:10.761Z,72.21
2023-04-09T01:36:14.785Z,72.64
2023-04-09T01:39:16.772Z,72.13
2023-04-09T01:42:20.028Z,72.11
2023-04-09T01:45:22.423Z,72.36
2023-04-09T01:48:24.899Z,72.78
2023-04-09T01:51:27.254Z,72.54
2023-04-09T01:54:29.094Z,73.02
2023-04-09T01:57:30.963Z,73.25
2023-04-09T02:00:41.363Z,73.26
2023-04-09T02:03:55.920Z,73.15
2023-04-09T02:07:09.930Z,72.99
2023-04-09T02:10:13.565Z,73.11
2023-04-09T02:13:18.262Z,73.21
2023-04-09T02:16:21.770Z,73.89
2023-04-09T02:19:23.764Z,73.72
2023-04-09T02:22:25.182Z,73.39
2023-04-09T02:25:27.654Z,73.79
2023-04-09T02:28:29.432Z,74.06
2023-04-09T02:31:31.383Z,73.66
2023-04-09T02:34:33.178Z,74.17
2023-04-09T02:37:34.939Z,73.96
2023-04-09T02:40:37.349Z,73.91
2023-04-09T02:43:38.982Z,74.05
2023-04-09T02:46:42.234Z,74.42
2023-04-09T02:49:44.745Z,74.82
2023-04-09T02:52:47.362Z,75.40
2023-04-09T02:55:49.260Z,75.58
2023-04-09T02:58:54.039Z,75.43
2023-04-09T03:01:56.521Z,74.61
2023-04-09T03:04:58.084Z,75.41
2023-04-09T03:07:59.856Z,75.44
2023-04-09T03:11:01.720Z,75.35
2023-04-09T03:14:03.684Z,75.44
2023-04-09T03:17:05.912Z,75.60
2023-04-09T03:20:08.189Z,76.18
2023-04-09T03:23:12.805Z,76.53
2023-04-09T03:26:19.525Z,76.43
2023-04-09T03:29:43.529Z,76.81
2023-04-09T03:32:45.549Z,76.40
2023-04-09T03:35:49.660Z,77.23
2023-04-09T03:38:58.038Z,77.78
2023-04-09T03:42:05.200Z,77.84
2023-04-09T03:45:16.788Z,77.77
2023-04-09T03:48:22.963Z,78.16
2023-04-09T03:51:26.943Z,77.46
2023-04-09T03:54:32.586Z,77.89
2023-04-09T03:57:35.211Z,77.92
2023-04-09T04:00:39.383Z,78.62
2023-04-09T04:04:00.406Z,78.68
2023-04-09T04:07:16.959Z,78.52
2023-04-09T04:10:29.838Z,79.07
2023-04-09T04:13:32.036Z,77.81
2023-04-09T04:16:41.169Z,78.86
2023-04-09T04:19:43.921Z,77.79
2023-04-09T04:23:07.711Z,77.93
2023-04-09T04:26:13.321Z,78.51
2023-04-09T04:29:16.346Z,79.44
2023-04-09T04:32:24.886Z,79.87
2023-04-09T04:35:28.653Z,79.84
2023-04-09T04:38:35.032Z,79.88
2023-04-09T04:41:40.312Z,80.63
2023-04-09T04:44:50.363Z,80.86
2023-04-09T04:48:12.374Z,79.37
2023-04-09T04:51:13.873Z,80.78
2023-04-09T04:57:46.182Z,81.65
2023-04-09T05:01:09.294Z,81.13
2023-04-09T05:04:11.899Z,80.70
2023-04-09T05:07:14.330Z,81.05
2023-04-09T05:10:23.670Z,82.02
2023-04-09T05:13:25.841Z,81.22
2023-04-09T05:16:28.487Z,81.33
2023-04-09T05:19:37.672Z,82.39
2023-04-09T05:22:39.123Z,83.10
2023-04-09T05:25:41.863Z,83.02
2023-04-09T05:28:52.327Z,82.72
2023-04-09T05:31:56.707Z,82.60
2023-04-09T05:35:06.795Z,83.16
2023-04-09T05:38:14.066Z,83.25
2023-04-09T05:41:22.736Z,83.64
2023-04-09T05:44:37.683Z,83.31
2023-04-09T05:47:47.130Z,83.88
2023-04-09T05:50:55.756Z,84.79
2023-04-09T05:54:01.246Z,83.94
2023-04-09T05:57:07.490Z,84.73
2023-04-09T06:00:13.332Z,84.52
2023-04-09T06:03:23.317Z,83.50
2023-04-09T06:06:25.328Z,83.83
2023-04-09T06:09:27.892Z,82.70
2023-04-09T06:12:35.266Z,83.48
2023-04-09T06:15:39.556Z,82.75
2023-04-09T06:18:42.427Z,83.14
2023-04-09T06:21:44.349Z,82.53
2023-04-09T06:24:48.744Z,83.42
2023-04-09T06:27:50.510Z,82.68
2023-04-09T06:30:53.801Z,82.64
2023-04-09T06:33:56.437Z,82.98
2023-04-09T06:36:58.056Z,82.07
2023-04-09T06:40:01.386Z,82.68
2023-04-09T06:43:04.099Z,82.22
2023-04-09T06:46:17.174Z,81.29
2023-04-09T06:49:18.999Z,81.18
2023-04-09T06:52:21.404Z,81.49
2023-04-09T06:55:23.348Z,81.14
2023-04-09T06:58:24.857Z,81.39
2023-04-09T07:01:27.751Z,80.62
2023-04-09T07:04:29.981Z,80.27
2023-04-09T07:07:32.052Z,79.52
2023-04-09T07:10:33.828Z,79.24
2023-04-09T07:13:35.768Z,78.87
2023-04-09T07:16:37.757Z,78.62
2023-04-09T07:19:39.582Z,78.03
2023-04-09T07:22:41.873Z,78.47
2023-04-09T07:25:43.677Z,77.53
2023-04-09T07:28:45.418Z,77.31
2023-04-09T07:31:47.571Z,77.18
2023-04-09T07:34:52.045Z,76.62
2023-04-09T07:37:53.859Z,76.46
2023-04-09T07:40:55.939Z,76.59
2023-04-09T07:43:58.040Z,76.05
2023-04-09T07:46:59.518Z,76.46
2023-04-09T07:50:01.234Z,75.98
2023-04-09T07:53:05.619Z,75.62
2023-04-09T07:56:07.773Z,75.89
2023-04-09T07:59:09.574Z,75.29
2023-04-09T08:02:14.350Z,75.70
2023-04-09T08:05:17.040Z,76.86
2023-04-09T08:08:19.774Z,76.26
2023-04-09T08:11:25.159Z,76.28
2023-04-09T08:14:26.806Z,75.50
2023-04-09T08:17:29.535Z,74.96
2023-04-09T08:20:32.942Z,74.19
2023-04-09T08:23:34.740Z,74.03
2023-04-09T08:26:37.451Z,74.82
2023-04-09T08:29:40.420Z,74.08
2023-04-09T08:32:42.514Z,71.67
2023-04-09T08:35:44.706Z,71.59
2023-04-09T08:38:47.094Z,72.42
2023-04-09T08:41:51.953Z,73.47
2023-04-09T08:44:53.870Z,69.75
2023-04-09T08:47:59.602Z,67.50
2023-04-09T08:51:01.786Z,66.31
2023-04-09T08:54:04.822Z,65.67
2023-04-09T08:57:07.479Z,64.86
2023-04-09T09:00:09.922Z,64.77
2023-04-09T09:03:15.805Z,63.81
2023-04-09T09:06:22.433Z,64.06
2023-04-09T09:09:24.781Z,63.52
2023-04-09T09:12:40.553Z,61.25
2023-04-09T09:15:42.384Z,61.09
2023-04-09T09:18:44.794Z,60.16
2023-04-09T09:21:56.129Z,58.96
2023-04-09T09:24:58.888Z,56.86
2023-04-09T09:28:08.971Z,58.24
2023-04-09T09:31:12.378Z,56.48
2023-04-09T09:34:13.862Z,57.86
2023-04-09T09:37:28.865Z,53.72
2023-04-09T09:40:30.689Z,55.94
2023-04-09T09:43:42.586Z,54.13
2023-04-09T09:46:45.425Z,55.14
2023-04-09T09:49:51.111Z,53.63
2023-04-09T09:53:03.204Z,53.73
2023-04-09T09:56:07.083Z,51.01
2023-04-09T09:59:18.604Z,49.42
2023-04-09T10:02:23.470Z,50.62
2023-04-09T10:05:27.439Z,49.28
2023-04-09T10:08:31.141Z,48.95
2023-04-09T10:11:36.296Z,47.95
2023-04-09T10:14:39.444Z,48.17
2023-04-09T10:17:41.283Z,48.17
2023-04-09T10:21:30.461Z,48.05
2023-04-09T10:24:34.638Z,47.74
2023-04-09T10:27:36.469Z,49.16
2023-04-09T10:30:38.347Z,48.85
2023-04-09T10:33:43.461Z,49.57
2023-04-09T10:36:55.243Z,49.88
2023-04-09T10:40:21.598Z,49.56
2023-04-09T10:43:24.081Z,49.68
2023-04-09T10:46:30.931Z,47.18
2023-04-09T10:49:38.074Z,45.53
2023-04-09T10:52:40.895Z,47.51
2023-04-09T10:55:49.383Z,48.33
2023-04-09T10:58:51.393Z,43.65
2023-04-09T11:01:54.532Z,41.57
2023-04-09T11:05:18.180Z,42.08
2023-04-09T11:08:21.907Z,42.49
2023-04-09T11:11:26.690Z,42.83
2023-04-09T11:14:28.532Z,43.63
2023-04-09T11:17:35.830Z,44.87
2023-04-09T11:20:38.828Z,44.27
2023-04-09T11:23:40.236Z,42.70
2023-04-09T11:26:42.025Z,42.58
2023-04-09T11:29:43.453Z,42.45
2023-04-09T11:32:46.081Z,42.55
2023-04-09T11:35:49.012Z,42.71
2023-04-09T11:38:51.515Z,42.11
2023-04-09T11:41:53.550Z,41.85
2023-04-09T11:44:55.334Z,43.19
2023-04-09T11:47:57.512Z,41.93
2023-04-09T11:51:03.690Z,41.09
2023-04-09T11:54:06.536Z,41.44
2023-04-09T11:57:08.342Z,42.08
2023-04-09T12:00:19.621Z,42.37
2023-04-09T12:03:28.420Z,40.76
2023-04-09T12:06:30.756Z,41.64
2023-04-09T12:09:32.141Z,41.80
2023-04-09T12:12:47.273Z,41.15
2023-04-09T12:15:49.617Z,41.55
2023-04-09T12:18:55.645Z,41.34
2023-04-09T12:21:58.276Z,40.34
2023-04-09T12:25:00.401Z,40.67
2023-04-09T12:28:03.747Z,40.77
2023-04-09T12:31:10.786Z,40.24
2023-04-09T12:34:12.753Z,40.01
2023-04-09T12:37:14.518Z,40.54
2023-04-09T12:40:16.986Z,40.72
2023-04-09T12:43:19.172Z,40.52
2023-04-09T12:46:20.802Z,39.06
2023-04-09T12:49:22.618Z,39.62
2023-04-09T12:52:24.687Z,40.40
2023-04-09T12:55:27.896Z,39.24
2023-04-09T12:58:29.773Z,38.84
2023-04-09T13:01:32.750Z,38.54
2023-04-09T13:04:34.951Z,37.11
2023-04-09T13:07:37.081Z,37.59
2023-04-09T13:10:39.163Z,35.93
2023-04-09T13:13:42.584Z,36.93
2023-04-09T13:16:44.551Z,36.34
2023-04-09T13:19:50.052Z,36.46
2023-04-09T13:22:52.700Z,37.14
2023-04-09T13:25:54.733Z,37.06
2023-04-09T13:28:57.532Z,36.64
2023-04-09T13:32:01.695Z,37.47
2023-04-09T13:35:03.852Z,36.48
2023-04-09T13:38:06.094Z,36.21
2023-04-09T13:41:07.569Z,34.76
2023-04-09T13:44:12.254Z,35.75
2023-04-09T13:47:15.893Z,35.49
2023-04-09T13:50:17.783Z,35.04
2023-04-09T13:53:20.334Z,34.30
2023-04-09T13:56:24.589Z,34.86
2023-04-09T13:59:26.500Z,35.29
2023-04-09T14:02:29.258Z,35.49
2023-04-09T14:05:32.648Z,34.95
2023-04-09T14:08:35.530Z,33.38
2023-04-09T14:11:40.106Z,33.92
2023-04-09T14:14:41.986Z,33.13
2023-04-09T14:17:44.287Z,35.15
2023-04-09T14:20:46.411Z,35.10
2023-04-09T14:23:48.360Z,33.57
2023-04-09T14:26:52.983Z,33.49
2023-04-09T14:29:55.868Z,32.67
2023-04-09T14:32:57.682Z,33.05
2023-04-09T14:36:00.179Z,34.18
2023-04-09T14:39:04.126Z,32.57
2023-04-09T14:42:06.255Z,32.82
2023-04-09T14:45:08.454Z,32.04
2023-04-09T14:48:10.275Z,31.90
2023-04-09T14:51:12.198Z,32.99
2023-04-09T14:54:14.098Z,32.43
2023-04-09T14:57:15.993Z,32.38
2023-04-09T15:00:17.385Z,33.33
2023-04-09T15:03:19.077Z,33.43
2023-04-09T15:06:21.072Z,33.60
2023-04-09T15:09:23.520Z,33.89
2023-04-09T15:12:27.180Z,32.79
2023-04-09T15:15:29.558Z,32.78
2023-04-09T15:18:30.958Z,33.04
2023-04-09T15:21:36.056Z,32.33
2023-04-09T15:24:38.193Z,32.23
2023-04-09T15:27:39.670Z,31.89
2023-04-09T15:30:41.884Z,32.18
2023-04-09T15:33:44.614Z,31.69
2023-04-09T15:36:46.465Z,30.97
2023-04-09T15:39:48.297Z,30.72
2023-04-09T15:42:50.072Z,31.48
2023-04-09T15:45:51.921Z,31.21
2023-04-09T15:49:11.726Z,31.02
2023-04-09T15:52:13.633Z,31.31
2023-04-09T15:55:15.118Z,31.16
2023-04-09T15:58:17.194Z,31.52
2023-04-09T16:01:19.462Z,31.57
2023-04-09T16:04:21.161Z,31.86
2023-04-09T16:07:23.069Z,31.87
2023-04-09T16:10:25.255Z,31.94
2023-04-09T16:13:27.450Z,32.03
2023-04-09T16:16:29.495Z,32.29
2023-04-09T16:19:31.372Z,32.49
2023-04-09T16:22:33.529Z,32.51
2023-04-09T16:25:36.129Z,32.67
2023-04-09T16:28:38.192Z,32.06
2023-04-09T16:31:42.961Z,32.22
2023-04-09T16:34:44.513Z,31.90
2023-04-09T16:37:46.423Z,33.32
2023-04-09T16:40:48.357Z,33.86
2023-04-09T16:43:51.733Z,34.19
2023-04-09T16:46:53.707Z,34.18
2023-04-09T16:49:55.124Z,34.12
2023-04-09T16:52:57.185Z,34.78
2023-04-09T16:56:02.343Z,34.94
2023-04-09T16:59:04.024Z,34.83
2023-04-09T17:02:09.269Z,34.53
2023-04-09T17:05:11.361Z,35.32
2023-04-09T17:08:13.974Z,35.72
2023-04-09T17:11:17.019Z,36.09
2023-04-09T17:14:19.868Z,36.13
2023-04-09T17:17:22.150Z,36.31
2023-04-09T17:20:25.883Z,37.04
2023-04-09T17:23:28.154Z,37.13
2023-04-09T17:26:30.107Z,36.99
2023-04-09T17:29:31.983Z,37.23
2023-04-09T17:32:33.778Z,37.47
2023-04-09T17:35:35.712Z,37.56
2023-04-09T17:38:37.653Z,37.53
2023-04-09T17:41:39.433Z,37.99
2023-04-09T17:44:43.545Z,38.07
2023-04-09T17:47:45.627Z,38.22
2023-04-09T17:50:50.026Z,38.77
2023-04-09T17:53:53.501Z,38.59
2023-04-09T17:56:56.822Z,39.12
2023-04-09T17:59:58.654Z,39.33
2023-04-09T18:03:00.675Z,39.69
2023-04-09T18:06:03.144Z,39.88
2023-04-09T18:09:04.917Z,40.57
2023-04-09T18:12:07.322Z,40.66
2023-04-09T18:15:09.569Z,40.77
2023-04-09T18:18:11.364Z,41.22
2023-04-09T18:21:13.181Z,41.44
2023-04-09T18:24:15.450Z,41.71
2023-04-09T18:27:17.698Z,41.99
2023-04-09T18:30:19.668Z,42.21
2023-04-09T18:33:21.656Z,42.39
2023-04-09T18:36:24.092Z,42.69
2023-04-09T18:39:25.778Z,42.98
2023-04-09T18:42:27.299Z,42.75
2023-04-09T18:45:29.065Z,43.30
2023-04-09T18:48:31.717Z,43.57
2023-04-09T18:51:33.356Z,44.53
2023-04-09T18:54:36.409Z,44.75
2023-04-09T18:57:38.203Z,44.95
2023-04-09T19:00:39.696Z,44.95
2023-04-09T19:03:42.974Z,45.19
2023-04-09T19:06:47.267Z,44.90
2023-04-09T19:09:49.157Z,45.43
2023-04-09T19:12:53.717Z,45.19
2023-04-09T19:15:57.359Z,45.24
2023-04-09T19:18:58.836Z,45.47
2023-04-09T19:22:00.677Z,45.92
2023-04-09T19:25:02.479Z,46.05
2023-04-09T19:28:04.772Z,46.09
2023-04-09T19:31:06.600Z,46.60
2023-04-09T19:34:10.627Z,47.03
2023-04-09T19:37:15.009Z,46.89
2023-04-09T19:40:18.054Z,47.37
2023-04-09T19:43:19.437Z,47.60
2023-04-09T19:46:20.962Z,47.45
2023-04-09T19:49:23.164Z,47.79
2023-04-09T19:52:25.912Z,48.04
2023-04-09T19:55:27.871Z,48.61
2023-04-09T19:58:31.901Z,48.79
2023-04-09T20:01:33.918Z,48.89
2023-04-09T20:04:36.386Z,49.22
2023-04-09T20:07:38.403Z,48.72
2023-04-09T20:10:42.577Z,49.08
2023-04-09T20:13:44.481Z,49.28
2023-04-09T20:16:46.565Z,48.93
2023-04-09T20:19:49.410Z,49.06
2023-04-09T20:22:56.150Z,49.41
2023-04-09T20:25:57.947Z,49.13
2023-04-09T20:29:00.331Z,49.16
2023-04-09T20:32:02.147Z,49.71
2023-04-09T20:35:05.472Z,49.47
2023-04-09T20:38:07.494Z,49.60
2023-04-09T20:41:09.377Z,50.08
2023-04-09T20:44:11.183Z,49.77
2023-04-09T20:47:13.088Z,50.09
2023-04-09T20:50:15.862Z,50.37
2023-04-09T20:53:17.861Z,50.60
2023-04-09T20:56:41.459Z,51.08
2023-04-09T20:59:43.347Z,50.62
2023-04-09T21:02:44.930Z,51.35
2023-04-09T21:05:46.649Z,51.40
2023-04-09T21:08:48.478Z,51.67
2023-04-09T21:11:50.354Z,51.85
2023-04-09T21:14:52.221Z,51.33
2023-04-09T21:17:54.056Z,51.85
2023-04-09T21:20:56.007Z,51.94
2023-04-09T21:23:57.924Z,52.07
2023-04-09T21:26:59.702Z,52.12
2023-04-09T21:30:01.592Z,52.50
2023-04-09T21:33:08.388Z,52.49
2023-04-09T21:39:32.704Z,53.12
2023-04-09T21:42:34.546Z,53.41
2023-04-09T21:45:36.564Z,53.60
2023-04-09T21:48:40.635Z,54.01
2023-04-09T21:52:07.196Z,53.94
2023-04-09T21:55:10.166Z,54.58
2023-04-09T21:58:12.056Z,54.79
2023-04-09T22:04:36.738Z,54.05
2023-04-09T22:07:39.909Z,55.23
2023-04-09T22:10:41.377Z,54.78
2023-04-09T22:13:42.839Z,54.95
2023-04-09T22:16:44.618Z,54.56
2023-04-09T22:19:46.618Z,54.89
2023-04-09T22:22:48.404Z,55.04
2023-04-09T22:25:50.834Z,55.01
2023-04-09T22:28:54.376Z,54.92
2023-04-09T22:31:56.430Z,54.98
2023-04-09T22:34:58.202Z,55.66
2023-04-09T22:38:00.013Z,55.60
2023-04-09T22:41:01.852Z,55.88
2023-04-09T22:44:03.730Z,56.04
2023-04-09T22:47:05.523Z,56.00
2023-04-09T22:50:08.191Z,56.36
2023-04-09T22:53:09.987Z,56.12
2023-04-09T22:56:12.475Z,56.81
2023-04-09T22:59:15.485Z,56.68
2023-04-09T23:02:17.369Z,56.91
2023-04-09T23:05:19.666Z,57.61
2023-04-09T23:08:21.554Z,57.03
2023-04-09T23:11:23.955Z,57.58
2023-04-09T23:14:26.086Z,57.45
2023-04-09T23:17:27.900Z,57.22
2023-04-09T23:20:29.794Z,57.34
2023-04-09T23:23:31.565Z,58.06
2023-04-09T23:26:34.247Z,58.02
2023-04-09T23:29:35.613Z,58.13
2023-04-09T23:32:37.484Z,58.29
2023-04-09T23:35:39.457Z,57.92
2023-04-09T23:38:43.644Z,58.50
2023-04-09T23:41:45.425Z,59.25
2023-04-09T23:44:47.188Z,58.51
2023-04-09T23:47:49.657Z,59.16
2023-04-09T23:51:09.449Z,59.67
2023-04-09T23:54:11.446Z,59.29
2023-04-09T23:57:13.378Z,59.12
